sensor_id;sensor_type;location;lat;lon;timestamp;pressure;altitude;pressure_sealevel;temperature;humidity
71344;BME280;59146;43.850;25.948;2023-07-02T00:02:00;100205.66;;;24.14;61.27
71344;BME280;59146;43.850;25.948;2023-07-02T00:04:25;100125.22;;;23.81;61.49
71344;BME280;59146;43.850;25.948;2023-07-02T00:06:51;100127.34;;;23.71;62.46
71344;BME280;59146;43.850;25.948;2023-07-02T00:09:16;100134.22;;;23.80;62.15
71344;BME280;59146;43.850;25.948;2023-07-02T00:11:44;100140.06;;;23.90;61.47
71344;BME280;59146;43.850;25.948;2023-07-02T00:14:11;100168.94;;;24.01;61.65
71344;BME280;59146;43.850;25.948;2023-07-02T00:16:43;100142.75;;;23.76;62.54
71344;BME280;59146;43.850;25.948;2023-07-02T00:19:08;100111.34;;;23.56;62.12
71344;BME280;59146;43.850;25.948;2023-07-02T00:21:34;100158.31;;;23.87;61.80
71344;BME280;59146;43.850;25.948;2023-07-02T00:24:00;100186.91;;;23.93;62.98
71344;BME280;59146;43.850;25.948;2023-07-02T00:26:26;100194.25;;;23.91;62.60
71344;BME280;59146;43.850;25.948;2023-07-02T00:28:53;100100.09;;;23.32;62.61
71344;BME280;59146;43.850;25.948;2023-07-02T00:31:19;100156.50;;;23.73;62.60
71344;BME280;59146;43.850;25.948;2023-07-02T00:33:44;100185.81;;;23.87;62.28
71344;BME280;59146;43.850;25.948;2023-07-02T00:36:10;100181.31;;;23.73;62.68
71344;BME280;59146;43.850;25.948;2023-07-02T00:38:47;100196.47;;;23.87;63.01
71344;BME280;59146;43.850;25.948;2023-07-02T00:41:13;100144.53;;;23.54;62.75
71344;BME280;59146;43.850;25.948;2023-07-02T00:43:39;100206.69;;;23.98;63.11
71344;BME280;59146;43.850;25.948;2023-07-02T00:46:15;100213.66;;;23.99;62.74
71344;BME280;59146;43.850;25.948;2023-07-02T00:48:50;100152.72;;;23.52;62.86
71344;BME280;59146;43.850;25.948;2023-07-02T00:51:23;100149.78;;;23.47;63.37
71344;BME280;59146;43.850;25.948;2023-07-02T00:53:51;100188.28;;;23.74;63.30
71344;BME280;59146;43.850;25.948;2023-07-02T00:56:17;100180.19;;;23.82;63.16
71344;BME280;59146;43.850;25.948;2023-07-02T00:58:45;100075.78;;;23.06;63.22
71344;BME280;59146;43.850;25.948;2023-07-02T01:01:23;100155.31;;;23.60;63.75
71344;BME280;59146;43.850;25.948;2023-07-02T01:04:04;100183.88;;;23.81;63.68
71344;BME280;59146;43.850;25.948;2023-07-02T01:06:35;100117.69;;;23.41;63.44
71344;BME280;59146;43.850;25.948;2023-07-02T01:09:04;100180.09;;;23.76;63.61
71344;BME280;59146;43.850;25.948;2023-07-02T01:11:50;100182.88;;;23.67;64.13
71344;BME280;59146;43.850;25.948;2023-07-02T01:14:24;100186.47;;;23.60;64.36
71344;BME280;59146;43.850;25.948;2023-07-02T01:16:52;100139.81;;;23.27;64.47
71344;BME280;59146;43.850;25.948;2023-07-02T01:19:22;100187.94;;;23.48;64.71
71344;BME280;59146;43.850;25.948;2023-07-02T01:21:50;100113.97;;;23.13;64.95
71344;BME280;59146;43.850;25.948;2023-07-02T01:24:17;100132.75;;;23.34;64.76
71344;BME280;59146;43.850;25.948;2023-07-02T01:26:42;100170.38;;;23.53;65.18
71344;BME280;59146;43.850;25.948;2023-07-02T01:29:18;100194.91;;;23.49;65.63
71344;BME280;59146;43.850;25.948;2023-07-02T01:31:45;100190.84;;;23.53;65.46
71344;BME280;59146;43.850;25.948;2023-07-02T01:34:11;100132.25;;;23.16;65.14
71344;BME280;59146;43.850;25.948;2023-07-02T01:36:37;100111.47;;;22.97;66.09
71344;BME280;59146;43.850;25.948;2023-07-02T01:39:03;100120.84;;;22.92;65.93
71344;BME280;59146;43.850;25.948;2023-07-02T01:41:29;100179.59;;;23.28;66.24
71344;BME280;59146;43.850;25.948;2023-07-02T01:43:54;100123.16;;;22.96;66.46
71344;BME280;59146;43.850;25.948;2023-07-02T01:46:20;100090.50;;;22.56;67.09
71344;BME280;59146;43.850;25.948;2023-07-02T01:48:46;100140.31;;;22.93;66.45
71344;BME280;59146;43.850;25.948;2023-07-02T01:51:11;100154.38;;;23.02;66.37
71344;BME280;59146;43.850;25.948;2023-07-02T01:53:37;100193.88;;;23.13;67.25
71344;BME280;59146;43.850;25.948;2023-07-02T01:56:02;100172.00;;;23.03;67.08
71344;BME280;59146;43.850;25.948;2023-07-02T01:58:28;100108.03;;;22.73;67.18
71344;BME280;59146;43.850;25.948;2023-07-02T02:00:53;100188.84;;;23.18;67.33
71344;BME280;59146;43.850;25.948;2023-07-02T02:03:18;100138.38;;;22.87;67.61
71344;BME280;59146;43.850;25.948;2023-07-02T02:05:44;100198.41;;;23.12;68.71
71344;BME280;59146;43.850;25.948;2023-07-02T02:08:09;100185.97;;;23.05;68.01
71344;BME280;59146;43.850;25.948;2023-07-02T02:10:35;100181.81;;;23.02;68.33
71344;BME280;59146;43.850;25.948;2023-07-02T02:13:00;100163.88;;;22.81;68.76
71344;BME280;59146;43.850;25.948;2023-07-02T02:15:26;100135.75;;;22.56;69.08
71344;BME280;59146;43.850;25.948;2023-07-02T02:17:51;100186.44;;;22.94;68.54
71344;BME280;59146;43.850;25.948;2023-07-02T02:20:17;100106.94;;;22.37;68.95
71344;BME280;59146;43.850;25.948;2023-07-02T02:22:42;100189.84;;;22.79;69.42
71344;BME280;59146;43.850;25.948;2023-07-02T02:25:08;100128.22;;;22.45;69.41
71344;BME280;59146;43.850;25.948;2023-07-02T02:27:33;100155.94;;;22.73;68.93
71344;BME280;59146;43.850;25.948;2023-07-02T02:29:59;100150.41;;;22.83;68.69
71344;BME280;59146;43.850;25.948;2023-07-02T02:32:24;100170.91;;;22.97;68.54
71344;BME280;59146;43.850;25.948;2023-07-02T02:34:50;100174.69;;;23.03;67.95
71344;BME280;59146;43.850;25.948;2023-07-02T02:37:15;100130.63;;;22.77;68.65
71344;BME280;59146;43.850;25.948;2023-07-02T02:39:40;100193.19;;;23.19;67.57
71344;BME280;59146;43.850;25.948;2023-07-02T02:42:06;100130.50;;;22.94;66.72
71344;BME280;59146;43.850;25.948;2023-07-02T02:44:31;100114.69;;;22.92;67.53
71344;BME280;59146;43.850;25.948;2023-07-02T02:46:58;100182.16;;;23.22;67.99
71344;BME280;59146;43.850;25.948;2023-07-02T02:49:24;100114.75;;;22.84;68.39
71344;BME280;59146;43.850;25.948;2023-07-02T02:51:50;100174.28;;;23.28;68.39
71344;BME280;59146;43.850;25.948;2023-07-02T02:54:16;100123.84;;;22.89;68.43
71344;BME280;59146;43.850;25.948;2023-07-02T02:56:42;100166.06;;;23.15;68.66
71344;BME280;59146;43.850;25.948;2023-07-02T02:59:07;100141.19;;;22.85;69.22
71344;BME280;59146;43.850;25.948;2023-07-02T03:01:32;100159.00;;;23.08;68.96
71344;BME280;59146;43.850;25.948;2023-07-02T03:03:58;100119.13;;;22.77;68.97
71344;BME280;59146;43.850;25.948;2023-07-02T03:06:24;100122.63;;;22.77;69.57
71344;BME280;59146;43.850;25.948;2023-07-02T03:08:49;100118.44;;;22.83;68.89
71344;BME280;59146;43.850;25.948;2023-07-02T03:11:15;100102.34;;;22.76;68.92
71344;BME280;59146;43.850;25.948;2023-07-02T03:13:40;100134.81;;;22.95;68.86
71344;BME280;59146;43.850;25.948;2023-07-02T03:16:06;100121.94;;;22.98;68.92
71344;BME280;59146;43.850;25.948;2023-07-02T03:18:31;100193.28;;;23.77;66.78
71344;BME280;59146;43.850;25.948;2023-07-02T03:20:57;100096.53;;;23.25;66.62
71344;BME280;59146;43.850;25.948;2023-07-02T03:23:23;100117.88;;;23.25;66.34
71344;BME280;59146;43.850;25.948;2023-07-02T03:25:48;100146.38;;;23.39;66.79
71344;BME280;59146;43.850;25.948;2023-07-02T03:28:14;100169.19;;;23.56;66.87
71344;BME280;59146;43.850;25.948;2023-07-02T03:30:39;100143.44;;;23.48;66.05
71344;BME280;59146;43.850;25.948;2023-07-02T03:33:04;100120.47;;;23.47;66.12
71344;BME280;59146;43.850;25.948;2023-07-02T03:35:30;100129.88;;;23.94;64.54
71344;BME280;59146;43.850;25.948;2023-07-02T03:37:55;100125.09;;;24.04;63.38
71344;BME280;59146;43.850;25.948;2023-07-02T03:40:22;100146.44;;;24.39;61.94
71344;BME280;59146;43.850;25.948;2023-07-02T03:42:48;100111.59;;;24.26;61.62
71344;BME280;59146;43.850;25.948;2023-07-02T03:45:13;100163.47;;;24.60;61.71
71344;BME280;59146;43.850;25.948;2023-07-02T03:47:39;100160.84;;;24.45;61.88
71344;BME280;59146;43.850;25.948;2023-07-02T03:50:04;100170.91;;;24.43;62.05
71344;BME280;59146;43.850;25.948;2023-07-02T03:52:30;100111.28;;;24.36;60.95
71344;BME280;59146;43.850;25.948;2023-07-02T03:54:55;100146.00;;;24.36;60.78
71344;BME280;59146;43.850;25.948;2023-07-02T03:57:21;100151.84;;;24.46;60.83
71344;BME280;59146;43.850;25.948;2023-07-02T03:59:46;100162.84;;;24.79;60.06
71344;BME280;59146;43.850;25.948;2023-07-02T04:02:11;100201.84;;;25.22;58.88
71344;BME280;59146;43.850;25.948;2023-07-02T04:04:37;100193.47;;;26.28;55.77
71344;BME280;59146;43.850;25.948;2023-07-02T04:07:02;100125.72;;;27.51;51.60
71344;BME280;59146;43.850;25.948;2023-07-02T04:09:28;100131.13;;;29.21;47.09
71344;BME280;59146;43.850;25.948;2023-07-02T04:11:53;100143.50;;;30.01;44.29
71344;BME280;59146;43.850;25.948;2023-07-02T04:14:18;100199.69;;;31.51;41.48
71344;BME280;59146;43.850;25.948;2023-07-02T04:16:45;100162.63;;;31.58;40.48
71344;BME280;59146;43.850;25.948;2023-07-02T04:19:10;100189.44;;;32.10;39.66
71344;BME280;59146;43.850;25.948;2023-07-02T04:21:36;100183.38;;;32.76;37.64
71344;BME280;59146;43.850;25.948;2023-07-02T04:24:01;100086.47;;;32.24;37.56
71344;BME280;59146;43.850;25.948;2023-07-02T04:26:27;100147.72;;;32.96;36.90
71344;BME280;59146;43.850;25.948;2023-07-02T04:28:53;100152.06;;;32.07;38.54
71344;BME280;59146;43.850;25.948;2023-07-02T04:31:20;100170.34;;;32.45;38.18
71344;BME280;59146;43.850;25.948;2023-07-02T04:33:45;100191.66;;;32.42;38.16
71344;BME280;59146;43.850;25.948;2023-07-02T04:36:10;100177.94;;;32.03;38.54
71344;BME280;59146;43.850;25.948;2023-07-02T04:38:37;100138.38;;;31.97;38.36
71344;BME280;59146;43.850;25.948;2023-07-02T04:41:04;100171.44;;;32.44;38.27
71344;BME280;59146;43.850;25.948;2023-07-02T04:43:33;100086.38;;;32.35;37.27
71344;BME280;59146;43.850;25.948;2023-07-02T04:45:59;100156.69;;;33.13;36.39
71344;BME280;59146;43.850;25.948;2023-07-02T04:48:24;100205.94;;;32.82;37.91
71344;BME280;59146;43.850;25.948;2023-07-02T04:50:50;100216.19;;;32.80;37.88
71344;BME280;59146;43.850;25.948;2023-07-02T04:53:15;100163.53;;;32.71;37.29
71344;BME280;59146;43.850;25.948;2023-07-02T04:55:41;100187.88;;;32.71;37.22
71344;BME280;59146;43.850;25.948;2023-07-02T04:58:06;100209.66;;;31.96;38.63
71344;BME280;59146;43.850;25.948;2023-07-02T05:00:32;100180.31;;;31.65;39.13
71344;BME280;59146;43.850;25.948;2023-07-02T05:02:57;100226.13;;;31.60;39.60
71344;BME280;59146;43.850;25.948;2023-07-02T05:05:23;100225.13;;;31.20;40.57
71344;BME280;59146;43.850;25.948;2023-07-02T05:07:48;100199.53;;;30.58;41.73
71344;BME280;59146;43.850;25.948;2023-07-02T05:10:13;100231.78;;;30.35;42.65
71344;BME280;59146;43.850;25.948;2023-07-02T05:12:39;100182.22;;;30.18;42.89
71344;BME280;59146;43.850;25.948;2023-07-02T05:15:05;100241.75;;;30.46;42.98
71344;BME280;59146;43.850;25.948;2023-07-02T05:17:31;100179.19;;;29.96;43.51
71344;BME280;59146;43.850;25.948;2023-07-02T05:20:00;100214.91;;;30.21;43.54
71344;BME280;59146;43.850;25.948;2023-07-02T05:22:25;100172.56;;;30.28;43.07
71344;BME280;59146;43.850;25.948;2023-07-02T05:24:50;100162.44;;;29.94;43.79
71344;BME280;59146;43.850;25.948;2023-07-02T05:27:16;100219.09;;;30.53;43.48
71344;BME280;59146;43.850;25.948;2023-07-02T05:29:43;100236.25;;;30.41;43.95
71344;BME280;59146;43.850;25.948;2023-07-02T05:32:08;100217.38;;;30.23;44.35
71344;BME280;59146;43.850;25.948;2023-07-02T05:34:34;100191.47;;;29.74;45.80
71344;BME280;59146;43.850;25.948;2023-07-02T05:36:59;100167.78;;;29.58;46.36
71344;BME280;59146;43.850;25.948;2023-07-02T05:39:25;100238.59;;;30.01;46.15
71344;BME280;59146;43.850;25.948;2023-07-02T05:41:50;100191.63;;;29.97;45.59
71344;BME280;59146;43.850;25.948;2023-07-02T05:44:16;100169.09;;;29.73;46.82
71344;BME280;59146;43.850;25.948;2023-07-02T05:46:42;100243.47;;;30.58;45.03
71344;BME280;59146;43.850;25.948;2023-07-02T05:49:07;100154.97;;;28.92;47.21
71344;BME280;59146;43.850;25.948;2023-07-02T05:51:33;100157.50;;;28.50;49.47
71344;BME280;59146;43.850;25.948;2023-07-02T05:53:58;100202.59;;;28.41;50.17
71344;BME280;59146;43.850;25.948;2023-07-02T05:56:24;100177.69;;;28.65;49.31
71344;BME280;59146;43.850;25.948;2023-07-02T05:58:49;100243.56;;;29.79;47.01
71344;BME280;59146;43.850;25.948;2023-07-02T06:01:15;100231.53;;;30.18;46.14
71344;BME280;59146;43.850;25.948;2023-07-02T06:03:41;100228.69;;;29.77;46.91
71344;BME280;59146;43.850;25.948;2023-07-02T06:06:08;100219.31;;;29.61;47.47
71344;BME280;59146;43.850;25.948;2023-07-02T06:08:33;100197.44;;;29.76;46.80
71344;BME280;59146;43.850;25.948;2023-07-02T06:10:59;100254.75;;;30.01;46.85
71344;BME280;59146;43.850;25.948;2023-07-02T06:13:25;100225.22;;;29.70;47.31
71344;BME280;59146;43.850;25.948;2023-07-02T06:15:50;100247.47;;;29.41;48.83
71344;BME280;59146;43.850;25.948;2023-07-02T06:18:16;100227.13;;;28.89;50.46
71344;BME280;59146;43.850;25.948;2023-07-02T06:20:42;100253.25;;;29.38;49.55
71344;BME280;59146;43.850;25.948;2023-07-02T06:23:08;100247.22;;;29.42;49.54
71344;BME280;59146;43.850;25.948;2023-07-02T06:25:34;100212.50;;;29.59;49.11
71344;BME280;59146;43.850;25.948;2023-07-02T06:27:59;100196.22;;;30.08;47.03
71344;BME280;59146;43.850;25.948;2023-07-02T06:30:25;100214.47;;;30.06;47.05
71344;BME280;59146;43.850;25.948;2023-07-02T06:32:51;100196.88;;;29.67;47.82
71344;BME280;59146;43.850;25.948;2023-07-02T06:35:16;100188.22;;;29.65;48.39
71344;BME280;59146;43.850;25.948;2023-07-02T06:37:42;100181.84;;;29.42;48.29
71344;BME280;59146;43.850;25.948;2023-07-02T06:40:07;100249.94;;;29.60;48.61
71344;BME280;59146;43.850;25.948;2023-07-02T06:42:33;100223.44;;;29.15;49.28
71344;BME280;59146;43.850;25.948;2023-07-02T06:45:01;100214.84;;;28.99;49.33
71344;BME280;59146;43.850;25.948;2023-07-02T06:47:26;100120.53;;;28.14;49.55
71344;BME280;59146;43.850;25.948;2023-07-02T06:49:52;100193.38;;;28.24;50.86
71344;BME280;59146;43.850;25.948;2023-07-02T06:52:18;100195.34;;;28.04;52.32
71344;BME280;59146;43.850;25.948;2023-07-02T06:54:44;100222.59;;;28.01;52.26
71344;BME280;59146;43.850;25.948;2023-07-02T06:57:09;100221.59;;;28.02;52.75
71344;BME280;59146;43.850;25.948;2023-07-02T06:59:34;100178.91;;;27.68;52.68
71344;BME280;59146;43.850;25.948;2023-07-02T07:02:01;100209.59;;;28.11;51.81
71344;BME280;59146;43.850;25.948;2023-07-02T07:04:26;100199.72;;;27.85;52.27
71344;BME280;59146;43.850;25.948;2023-07-02T07:06:52;100187.72;;;28.01;52.07
71344;BME280;59146;43.850;25.948;2023-07-02T07:09:19;100237.22;;;28.62;50.87
71344;BME280;59146;43.850;25.948;2023-07-02T07:11:44;100195.06;;;28.18;51.84
71344;BME280;59146;43.850;25.948;2023-07-02T07:14:09;100212.69;;;28.52;51.63
71344;BME280;59146;43.850;25.948;2023-07-02T07:16:35;100234.47;;;28.75;50.65
71344;BME280;59146;43.850;25.948;2023-07-02T07:19:01;100234.28;;;29.01;50.25
71344;BME280;59146;43.850;25.948;2023-07-02T07:21:26;100177.91;;;28.64;50.22
71344;BME280;59146;43.850;25.948;2023-07-02T07:23:52;100197.28;;;28.72;50.49
71344;BME280;59146;43.850;25.948;2023-07-02T07:26:17;100253.22;;;29.20;49.69
71344;BME280;59146;43.850;25.948;2023-07-02T07:28:43;100196.41;;;28.78;49.07
71344;BME280;59146;43.850;25.948;2023-07-02T07:31:08;100238.06;;;28.94;49.47
71344;BME280;59146;43.850;25.948;2023-07-02T07:33:33;100181.22;;;28.59;49.64
71344;BME280;59146;43.850;25.948;2023-07-02T07:35:59;100186.00;;;28.88;49.16
71344;BME280;59146;43.850;25.948;2023-07-02T07:38:25;100229.38;;;29.48;48.64
71344;BME280;59146;43.850;25.948;2023-07-02T07:40:51;100201.72;;;29.41;48.59
71344;BME280;59146;43.850;25.948;2023-07-02T07:43:16;100115.06;;;28.65;49.17
71344;BME280;59146;43.850;25.948;2023-07-02T07:45:42;100241.34;;;29.27;49.40
71344;BME280;59146;43.850;25.948;2023-07-02T07:48:07;100223.56;;;28.95;49.82
71344;BME280;59146;43.850;25.948;2023-07-02T07:50:32;100184.03;;;28.77;49.36
71344;BME280;59146;43.850;25.948;2023-07-02T07:52:58;100203.72;;;28.96;48.98
71344;BME280;59146;43.850;25.948;2023-07-02T07:55:24;100203.16;;;28.56;51.00
71344;BME280;59146;43.850;25.948;2023-07-02T07:57:49;100201.47;;;28.62;50.21
71344;BME280;59146;43.850;25.948;2023-07-02T08:00:15;100200.78;;;28.35;51.15
71344;BME280;59146;43.850;25.948;2023-07-02T08:02:42;100220.66;;;28.27;51.44
71344;BME280;59146;43.850;25.948;2023-07-02T08:05:08;100213.63;;;28.26;51.67
71344;BME280;59146;43.850;25.948;2023-07-02T08:07:34;100260.22;;;28.45;52.06
71344;BME280;59146;43.850;25.948;2023-07-02T08:10:00;100218.47;;;28.49;50.42
71344;BME280;59146;43.850;25.948;2023-07-02T08:12:27;100275.16;;;28.28;50.33
71344;BME280;59146;43.850;25.948;2023-07-02T08:14:55;100218.69;;;28.03;50.23
71344;BME280;59146;43.850;25.948;2023-07-02T08:17:20;100276.09;;;28.09;51.01
71344;BME280;59146;43.850;25.948;2023-07-02T08:19:45;100277.19;;;28.39;51.17
71344;BME280;59146;43.850;25.948;2023-07-02T08:22:12;100221.53;;;28.15;50.51
71344;BME280;59146;43.850;25.948;2023-07-02T08:24:38;100245.63;;;28.28;50.92
71344;BME280;59146;43.850;25.948;2023-07-02T08:27:03;100242.59;;;28.11;51.78
71344;BME280;59146;43.850;25.948;2023-07-02T08:29:32;100230.22;;;28.10;52.84
71344;BME280;59146;43.850;25.948;2023-07-02T08:31:58;100258.31;;;27.95;52.84
71344;BME280;59146;43.850;25.948;2023-07-02T08:34:24;100243.09;;;27.76;53.51
71344;BME280;59146;43.850;25.948;2023-07-02T08:36:49;100274.03;;;28.11;53.73
71344;BME280;59146;43.850;25.948;2023-07-02T08:39:17;100250.56;;;27.61;54.78
71344;BME280;59146;43.850;25.948;2023-07-02T08:41:43;100286.00;;;27.89;54.36
71344;BME280;59146;43.850;25.948;2023-07-02T08:44:11;100238.78;;;27.62;54.54
71344;BME280;59146;43.850;25.948;2023-07-02T08:46:36;100239.84;;;27.54;54.55
71344;BME280;59146;43.850;25.948;2023-07-02T08:49:02;100244.75;;;27.57;53.50
71344;BME280;59146;43.850;25.948;2023-07-02T08:51:28;100249.91;;;27.72;53.55
71344;BME280;59146;43.850;25.948;2023-07-02T08:53:54;100230.69;;;27.81;52.84
71344;BME280;59146;43.850;25.948;2023-07-02T08:56:19;100271.56;;;27.90;52.43
71344;BME280;59146;43.850;25.948;2023-07-02T08:58:44;100262.31;;;27.60;53.10
71344;BME280;59146;43.850;25.948;2023-07-02T09:01:12;100246.22;;;27.66;52.40
71344;BME280;59146;43.850;25.948;2023-07-02T09:03:38;100279.41;;;27.78;53.01
71344;BME280;59146;43.850;25.948;2023-07-02T09:06:05;100251.81;;;27.51;53.50
71344;BME280;59146;43.850;25.948;2023-07-02T09:08:31;100255.09;;;27.60;54.37
71344;BME280;59146;43.850;25.948;2023-07-02T09:11:11;100283.56;;;27.61;55.19
71344;BME280;59146;43.850;25.948;2023-07-02T09:13:44;100193.19;;;27.09;55.24
71344;BME280;59146;43.850;25.948;2023-07-02T09:16:29;100282.72;;;27.74;54.50
71344;BME280;59146;43.850;25.948;2023-07-02T09:19:08;100267.06;;;27.31;55.92
71344;BME280;59146;43.850;25.948;2023-07-02T09:24:20;100254.63;;;27.04;58.21
71344;BME280;59146;43.850;25.948;2023-07-02T09:26:48;100262.84;;;26.90;59.72
71344;BME280;59146;43.850;25.948;2023-07-02T09:29:33;100217.41;;;26.42;61.78
71344;BME280;59146;43.850;25.948;2023-07-02T09:32:03;100223.09;;;26.20;62.50
71344;BME280;59146;43.850;25.948;2023-07-02T09:34:30;100247.88;;;26.35;63.12
71344;BME280;59146;43.850;25.948;2023-07-02T09:37:00;100292.84;;;26.59;61.69
71344;BME280;59146;43.850;25.948;2023-07-02T09:39:33;100165.56;;;25.68;62.87
71344;BME280;59146;43.850;25.948;2023-07-02T09:42:01;100284.91;;;26.31;62.26
71344;BME280;59146;43.850;25.948;2023-07-02T09:44:27;100295.69;;;26.44;61.30
71344;BME280;59146;43.850;25.948;2023-07-02T09:49:32;100210.88;;;26.11;60.15
71344;BME280;59146;43.850;25.948;2023-07-02T09:52:00;100288.66;;;26.91;59.29
71344;BME280;59146;43.850;25.948;2023-07-02T09:54:26;100248.25;;;26.92;58.57
71344;BME280;59146;43.850;25.948;2023-07-02T09:56:52;100241.44;;;26.96;58.00
71344;BME280;59146;43.850;25.948;2023-07-02T09:59:17;100226.38;;;26.82;57.68
71344;BME280;59146;43.850;25.948;2023-07-02T10:01:43;100284.38;;;27.22;57.75
71344;BME280;59146;43.850;25.948;2023-07-02T10:04:15;100263.13;;;27.14;58.23
71344;BME280;59146;43.850;25.948;2023-07-02T10:06:54;100298.00;;;27.21;54.46
71344;BME280;59146;43.850;25.948;2023-07-02T10:12:24;100306.50;;;27.44;53.29
71344;BME280;59146;43.850;25.948;2023-07-02T10:14:52;100290.97;;;27.26;53.46
71344;BME280;59146;43.850;25.948;2023-07-02T10:17:28;100249.28;;;27.24;53.67
71344;BME280;59146;43.850;25.948;2023-07-02T10:19:55;100243.50;;;27.07;54.56
71344;BME280;59146;43.850;25.948;2023-07-02T10:22:22;100296.78;;;27.63;53.46
71344;BME280;59146;43.850;25.948;2023-07-02T10:24:59;100289.75;;;27.68;53.48
71344;BME280;59146;43.850;25.948;2023-07-02T10:27:35;100291.81;;;27.73;53.35
71344;BME280;59146;43.850;25.948;2023-07-02T10:30:01;100229.09;;;27.61;52.99
71344;BME280;59146;43.850;25.948;2023-07-02T10:32:28;100241.84;;;27.72;52.76
71344;BME280;59146;43.850;25.948;2023-07-02T10:34:54;100267.22;;;27.82;53.38
71344;BME280;59146;43.850;25.948;2023-07-02T10:37:20;100240.19;;;27.84;52.49
71344;BME280;59146;43.850;25.948;2023-07-02T10:39:45;100294.84;;;28.15;52.52
71344;BME280;59146;43.850;25.948;2023-07-02T10:42:11;100225.81;;;27.45;53.51
71344;BME280;59146;43.850;25.948;2023-07-02T10:45:06;100253.56;;;28.10;52.45
71344;BME280;59146;43.850;25.948;2023-07-02T10:47:31;100283.34;;;28.59;51.83
71344;BME280;59146;43.850;25.948;2023-07-02T10:49:57;100225.06;;;28.60;50.51
71344;BME280;59146;43.850;25.948;2023-07-02T10:52:22;100260.91;;;28.78;50.24
71344;BME280;59146;43.850;25.948;2023-07-02T10:54:48;100267.22;;;28.59;50.59
71344;BME280;59146;43.850;25.948;2023-07-02T10:57:15;100162.88;;;28.12;49.64
71344;BME280;59146;43.850;25.948;2023-07-02T10:59:46;100241.19;;;27.96;50.78
71344;BME280;59146;43.850;25.948;2023-07-02T11:02:11;100213.34;;;27.84;51.99
71344;BME280;59146;43.850;25.948;2023-07-02T11:04:37;100249.69;;;27.80;53.12
71344;BME280;59146;43.850;25.948;2023-07-02T11:07:03;100241.97;;;28.16;52.40
71344;BME280;59146;43.850;25.948;2023-07-02T11:09:29;100262.66;;;28.60;52.04
71344;BME280;59146;43.850;25.948;2023-07-02T11:11:56;100242.16;;;28.27;52.62
71344;BME280;59146;43.850;25.948;2023-07-02T11:14:43;100260.41;;;28.94;50.98
71344;BME280;59146;43.850;25.948;2023-07-02T11:17:08;100168.28;;;29.05;47.99
71344;BME280;59146;43.850;25.948;2023-07-02T11:19:34;100252.38;;;29.44;47.89
71344;BME280;59146;43.850;25.948;2023-07-02T11:22:00;100259.25;;;29.40;48.26
71344;BME280;59146;43.850;25.948;2023-07-02T11:24:34;100246.75;;;29.70;47.55
71344;BME280;59146;43.850;25.948;2023-07-02T11:27:02;100235.94;;;29.52;47.37
71344;BME280;59146;43.850;25.948;2023-07-02T11:29:31;100194.78;;;29.51;46.28
71344;BME280;59146;43.850;25.948;2023-07-02T11:32:07;100214.28;;;29.22;47.23
71344;BME280;59146;43.850;25.948;2023-07-02T11:34:34;100178.19;;;28.80;48.39
71344;BME280;59146;43.850;25.948;2023-07-02T11:37:00;100218.94;;;29.08;47.71
71344;BME280;59146;43.850;25.948;2023-07-02T11:39:25;100208.16;;;29.15;47.49
71344;BME280;59146;43.850;25.948;2023-07-02T11:41:52;100191.81;;;29.35;46.53
71344;BME280;59146;43.850;25.948;2023-07-02T11:44:17;100173.38;;;29.38;46.92
71344;BME280;59146;43.850;25.948;2023-07-02T11:46:43;100193.66;;;29.59;46.13
71344;BME280;59146;43.850;25.948;2023-07-02T11:49:09;100183.88;;;29.64;45.58
71344;BME280;59146;43.850;25.948;2023-07-02T11:51:38;100235.16;;;29.69;47.09
71344;BME280;59146;43.850;25.948;2023-07-02T11:54:05;100192.69;;;29.71;46.37
71344;BME280;59146;43.850;25.948;2023-07-02T11:56:30;100218.16;;;30.12;45.96
71344;BME280;59146;43.850;25.948;2023-07-02T11:58:56;100125.22;;;29.73;45.23
71344;BME280;59146;43.850;25.948;2023-07-02T12:01:22;100226.16;;;30.36;44.83
71344;BME280;59146;43.850;25.948;2023-07-02T12:03:47;100169.75;;;29.87;45.25
71344;BME280;59146;43.850;25.948;2023-07-02T12:06:12;100176.66;;;30.01;44.95
71344;BME280;59146;43.850;25.948;2023-07-02T12:08:38;100163.19;;;30.01;44.36
71344;BME280;59146;43.850;25.948;2023-07-02T12:11:03;100212.13;;;30.76;44.74
71344;BME280;59146;43.850;25.948;2023-07-02T12:13:29;100220.78;;;30.96;44.92
71344;BME280;59146;43.850;25.948;2023-07-02T12:15:54;100173.53;;;31.16;42.29
71344;BME280;59146;43.850;25.948;2023-07-02T12:18:20;100195.84;;;31.58;41.61
71344;BME280;59146;43.850;25.948;2023-07-02T12:20:45;100171.41;;;31.30;43.20
71344;BME280;59146;43.850;25.948;2023-07-02T12:23:11;100162.97;;;31.26;41.17
71344;BME280;59146;43.850;25.948;2023-07-02T12:25:37;100169.03;;;30.99;42.72
71344;BME280;59146;43.850;25.948;2023-07-02T12:28:03;100170.94;;;31.10;42.59
71344;BME280;59146;43.850;25.948;2023-07-02T12:30:30;100202.53;;;31.56;41.32
71344;BME280;59146;43.850;25.948;2023-07-02T12:32:55;100192.06;;;31.59;40.07
71344;BME280;59146;43.850;25.948;2023-07-02T12:35:21;100179.88;;;31.57;40.24
71344;BME280;59146;43.850;25.948;2023-07-02T12:37:48;100173.75;;;31.38;39.68
71344;BME280;59146;43.850;25.948;2023-07-02T12:40:14;100100.59;;;31.00;40.13
71344;BME280;59146;43.850;25.948;2023-07-02T12:42:43;100129.06;;;31.54;39.57
71344;BME280;59146;43.850;25.948;2023-07-02T12:45:09;100165.63;;;31.96;38.93
71344;BME280;59146;43.850;25.948;2023-07-02T12:47:35;100195.91;;;31.98;40.02